T7688NJ EGGW-LFPB
Flight info
| Callsign | T7688NJ |
|---|---|
| Flight time | 0h 43m |
| Altitude | 21000 |
| Route | RODNI N27 ICTAM Q63 CPT DCT MID DCT XIDIL UM605 PETAX J150 VELOL |
| Aircraft | GLF6/M-SBDE2E3FGHIJ4J5M1RWXY/LB1D1 |
Departure
| Time | 2026-04-15 00:27 |
|---|---|
| Airport | London Luton Airport (EGGW) |
Arrival
| Time | 2026-04-15 01:11 |
|---|---|
| Airport | Paris-Le Bourget International Airport (LFPB) |
| Time | Latitude | Longitude | Altitude | Speed | Heading |
|---|---|---|---|---|---|
| 2026-04-15 00:14 | 51.87901 | -0.38111 | 534 ft | 0 kts | 108° |
| 2026-04-15 00:23 | 51.87900 | -0.38106 | 534 ft | 2 kts | 108° |
| 2026-04-15 00:23 | 51.87905 | -0.38020 | 534 ft | 10 kts | 37° |
| 2026-04-15 00:23 | 51.87990 | -0.37985 | 534 ft | 12 kts | 14° |
| 2026-04-15 00:24 | 51.88054 | -0.37878 | 534 ft | 17 kts | 36° |
| 2026-04-15 00:24 | 51.88151 | -0.37724 | 534 ft | 21 kts | 54° |
| 2026-04-15 00:24 | 51.88224 | -0.37497 | 534 ft | 23 kts | 70° |
| 2026-04-15 00:24 | 51.88243 | -0.37253 | 534 ft | 23 kts | 147° |
| 2026-04-15 00:25 | 51.88087 | -0.37171 | 534 ft | 24 kts | 163° |
| 2026-04-15 00:25 | 51.87926 | -0.37081 | 534 ft | 24 kts | 161° |
| 2026-04-15 00:25 | 51.87763 | -0.36990 | 534 ft | 25 kts | 165° |
| 2026-04-15 00:25 | 51.87623 | -0.36854 | 534 ft | 23 kts | 101° |
| 2026-04-15 00:26 | 51.87666 | -0.36699 | 534 ft | 17 kts | 61° |
| 2026-04-15 00:26 | 51.87716 | -0.36432 | 534 ft | 27 kts | 75° |
| 2026-04-15 00:26 | 51.87763 | -0.36137 | 534 ft | 20 kts | 77° |
| 2026-04-15 00:26 | 51.87743 | -0.35949 | 534 ft | 21 kts | 152° |
| 2026-04-15 00:27 | 51.87608 | -0.35957 | 534 ft | 20 kts | 248° |
| 2026-04-15 00:27 | 51.87527 | -0.36418 | 534 ft | 92 kts | 255° |
| 2026-04-15 00:27 | 51.87295 | -0.37910 | 910 ft | 161 kts | 253° |
| 2026-04-15 00:27 | 51.86669 | -0.39387 | 1889 ft | 187 kts | 217° |
| 2026-04-15 00:28 | 51.85617 | -0.40651 | 2570 ft | 184 kts | 216° |
| 2026-04-15 00:28 | 51.84601 | -0.42037 | 3358 ft | 204 kts | 220° |
| 2026-04-15 00:28 | 51.83481 | -0.43726 | 4177 ft | 245 kts | 223° |
| 2026-04-15 00:28 | 51.82387 | -0.45950 | 4945 ft | 260 kts | 242° |
| 2026-04-15 00:29 | 51.81695 | -0.48647 | 5711 ft | 261 kts | 247° |
| 2026-04-15 00:29 | 51.81045 | -0.51344 | 6455 ft | 260 kts | 248° |
| 2026-04-15 00:29 | 51.80399 | -0.54063 | 7207 ft | 263 kts | 249° |
| 2026-04-15 00:29 | 51.79751 | -0.56812 | 7958 ft | 264 kts | 249° |
| 2026-04-15 00:30 | 51.79173 | -0.59636 | 8711 ft | 267 kts | 255° |
| 2026-04-15 00:30 | 51.78699 | -0.62528 | 9461 ft | 271 kts | 256° |
| 2026-04-15 00:30 | 51.78220 | -0.65435 | 10207 ft | 274 kts | 255° |
| 2026-04-15 00:30 | 51.77734 | -0.68387 | 10961 ft | 275 kts | 255° |
| 2026-04-15 00:31 | 51.77240 | -0.71376 | 11715 ft | 280 kts | 255° |
| 2026-04-15 00:31 | 51.76332 | -0.74280 | 12481 ft | 313 kts | 230° |
| 2026-04-15 00:31 | 51.74461 | -0.76315 | 13253 ft | 347 kts | 202° |
| 2026-04-15 00:31 | 51.71984 | -0.76820 | 14015 ft | 379 kts | 177° |
| 2026-04-15 00:32 | 51.69318 | -0.76141 | 14795 ft | 401 kts | 172° |
| 2026-04-15 00:32 | 51.66499 | -0.75445 | 15559 ft | 417 kts | 174° |
| 2026-04-15 00:32 | 51.63615 | -0.74790 | 16306 ft | 422 kts | 174° |
| 2026-04-15 00:32 | 51.60728 | -0.74160 | 17039 ft | 426 kts | 174° |
| 2026-04-15 00:33 | 51.57783 | -0.73528 | 17783 ft | 431 kts | 174° |
| 2026-04-15 00:33 | 51.54765 | -0.72883 | 18531 ft | 439 kts | 175° |
| 2026-04-15 00:33 | 51.51752 | -0.72243 | 19276 ft | 445 kts | 174° |
| 2026-04-15 00:33 | 51.48654 | -0.71586 | 20030 ft | 452 kts | 175° |
| 2026-04-15 00:34 | 51.45514 | -0.70920 | 20782 ft | 459 kts | 175° |
| 2026-04-15 00:34 | 51.42357 | -0.70252 | 21525 ft | 468 kts | 175° |
| 2026-04-15 00:34 | 51.39103 | -0.69566 | 22283 ft | 475 kts | 175° |
| 2026-04-15 00:34 | 51.35854 | -0.68879 | 23030 ft | 481 kts | 175° |
| 2026-04-15 00:35 | 51.32491 | -0.68171 | 23796 ft | 488 kts | 175° |
| 2026-04-15 00:35 | 51.29111 | -0.67459 | 24570 ft | 495 kts | 176° |
| 2026-04-15 00:35 | 51.25702 | -0.66745 | 25347 ft | 502 kts | 175° |
| 2026-04-15 00:35 | 51.22245 | -0.66019 | 26140 ft | 507 kts | 176° |
| 2026-04-15 00:36 | 51.18704 | -0.65279 | 26945 ft | 517 kts | 176° |
| 2026-04-15 00:36 | 51.15170 | -0.64538 | 27741 ft | 523 kts | 176° |
| 2026-04-15 00:36 | 51.11539 | -0.63781 | 28551 ft | 530 kts | 176° |
| 2026-04-15 00:36 | 51.07892 | -0.62692 | 29331 ft | 542 kts | 165° |
| 2026-04-15 00:37 | 51.04478 | -0.60034 | 30041 ft | 556 kts | 148° |
| 2026-04-15 00:37 | 51.01520 | -0.55984 | 30092 ft | 568 kts | 130° |
| 2026-04-15 00:37 | 50.99113 | -0.51169 | 30142 ft | 564 kts | 127° |
| 2026-04-15 00:38 | 50.94107 | -0.41743 | 30124 ft | 558 kts | 129° |
| 2026-04-15 00:38 | 50.89103 | -0.32566 | 30117 ft | 558 kts | 130° |
| 2026-04-15 00:39 | 50.84035 | -0.23319 | 30116 ft | 558 kts | 130° |
| 2026-04-15 00:39 | 50.78930 | -0.14042 | 30121 ft | 560 kts | 130° |
| 2026-04-15 00:40 | 50.74787 | -0.06537 | 30115 ft | 556 kts | 130° |
| 2026-04-15 00:40 | 50.72293 | -0.02032 | 30021 ft | 538 kts | 130° |
| 2026-04-15 00:40 | 50.69832 | 0.02410 | 29947 ft | 533 kts | 130° |
| 2026-04-15 00:41 | 50.64981 | 0.11141 | 29820 ft | 533 kts | 130° |
| 2026-04-15 00:41 | 50.60096 | 0.19901 | 29343 ft | 535 kts | 130° |
| 2026-04-15 00:41 | 50.57670 | 0.24237 | 28796 ft | 527 kts | 130° |
| 2026-04-15 00:42 | 50.55277 | 0.28512 | 28227 ft | 518 kts | 130° |
| 2026-04-15 00:42 | 50.52895 | 0.32759 | 27655 ft | 511 kts | 130° |
| 2026-04-15 00:42 | 50.50567 | 0.36902 | 27098 ft | 505 kts | 130° |
| 2026-04-15 00:42 | 50.48282 | 0.40963 | 26556 ft | 501 kts | 130° |
| 2026-04-15 00:43 | 50.45992 | 0.45026 | 26012 ft | 496 kts | 130° |
| 2026-04-15 00:43 | 50.43715 | 0.49062 | 25465 ft | 490 kts | 129° |
| 2026-04-15 00:43 | 50.41504 | 0.52971 | 24943 ft | 483 kts | 130° |
| 2026-04-15 00:43 | 50.39272 | 0.56910 | 24422 ft | 478 kts | 129° |
| 2026-04-15 00:44 | 50.37086 | 0.60768 | 23903 ft | 474 kts | 130° |
| 2026-04-15 00:44 | 50.34867 | 0.64449 | 23385 ft | 468 kts | 136° |
| 2026-04-15 00:44 | 50.32370 | 0.67669 | 22893 ft | 466 kts | 141° |
| 2026-04-15 00:44 | 50.29859 | 0.70808 | 22382 ft | 459 kts | 141° |
| 2026-04-15 00:45 | 50.27380 | 0.73908 | 21875 ft | 454 kts | 141° |
| 2026-04-15 00:45 | 50.24955 | 0.76937 | 21378 ft | 451 kts | 141° |
| 2026-04-15 00:45 | 50.22508 | 0.79992 | 20879 ft | 445 kts | 141° |
| 2026-04-15 00:45 | 50.20126 | 0.82961 | 20396 ft | 441 kts | 141° |
| 2026-04-15 00:46 | 50.17883 | 0.86155 | 19899 ft | 436 kts | 132° |
| 2026-04-15 00:46 | 50.15906 | 0.89672 | 19437 ft | 431 kts | 130° |
| 2026-04-15 00:46 | 50.13955 | 0.93157 | 18968 ft | 426 kts | 130° |
| 2026-04-15 00:46 | 50.12011 | 0.96616 | 18503 ft | 422 kts | 130° |
| 2026-04-15 00:47 | 50.10088 | 1.00032 | 18043 ft | 419 kts | 131° |
| 2026-04-15 00:47 | 50.08178 | 1.03418 | 17581 ft | 416 kts | 131° |
| 2026-04-15 00:47 | 50.06286 | 1.06766 | 17135 ft | 412 kts | 131° |
| 2026-04-15 00:47 | 50.04411 | 1.10084 | 16697 ft | 408 kts | 131° |
| 2026-04-15 00:48 | 50.02564 | 1.13342 | 16671 ft | 406 kts | 131° |
| 2026-04-15 00:48 | 50.00698 | 1.16633 | 16674 ft | 408 kts | 131° |
| 2026-04-15 00:48 | 49.98824 | 1.19935 | 16676 ft | 410 kts | 131° |
| 2026-04-15 00:48 | 49.96932 | 1.23263 | 16678 ft | 408 kts | 131° |
| 2026-04-15 00:49 | 49.95064 | 1.26545 | 16684 ft | 410 kts | 131° |
| 2026-04-15 00:49 | 49.93179 | 1.29853 | 16691 ft | 408 kts | 131° |
| 2026-04-15 00:49 | 49.91293 | 1.33159 | 16692 ft | 410 kts | 131° |
| 2026-04-15 00:49 | 49.89410 | 1.36454 | 16691 ft | 409 kts | 131° |
| 2026-04-15 00:50 | 49.87529 | 1.39743 | 16683 ft | 410 kts | 131° |
| 2026-04-15 00:50 | 49.85636 | 1.43047 | 16684 ft | 409 kts | 131° |
| 2026-04-15 00:50 | 49.83777 | 1.46290 | 16681 ft | 409 kts | 131° |
| 2026-04-15 00:50 | 49.81878 | 1.49597 | 16682 ft | 408 kts | 130° |
| 2026-04-15 00:51 | 49.79982 | 1.52894 | 16681 ft | 410 kts | 131° |
| 2026-04-15 00:51 | 49.78115 | 1.56137 | 16682 ft | 409 kts | 131° |
| 2026-04-15 00:51 | 49.76223 | 1.59419 | 16678 ft | 410 kts | 130° |
| 2026-04-15 00:51 | 49.74337 | 1.62688 | 16678 ft | 409 kts | 130° |
| 2026-04-15 00:52 | 49.72422 | 1.66002 | 16680 ft | 410 kts | 131° |
| 2026-04-15 00:52 | 49.70553 | 1.69232 | 16673 ft | 408 kts | 131° |
| 2026-04-15 00:52 | 49.68641 | 1.72531 | 16671 ft | 409 kts | 131° |
| 2026-04-15 00:52 | 49.66750 | 1.75791 | 16661 ft | 408 kts | 131° |
| 2026-04-15 00:53 | 49.64859 | 1.79047 | 16661 ft | 408 kts | 131° |
| 2026-04-15 00:53 | 49.62983 | 1.82274 | 16656 ft | 409 kts | 131° |
| 2026-04-15 00:53 | 49.61094 | 1.85519 | 16658 ft | 409 kts | 131° |
| 2026-04-15 00:53 | 49.59203 | 1.88762 | 16647 ft | 409 kts | 131° |
| 2026-04-15 00:54 | 49.57304 | 1.92014 | 16643 ft | 410 kts | 131° |
| 2026-04-15 00:54 | 49.55391 | 1.95287 | 16644 ft | 409 kts | 131° |
| 2026-04-15 00:54 | 49.53489 | 1.98537 | 16616 ft | 409 kts | 131° |
| 2026-04-15 00:54 | 49.51585 | 2.01787 | 16312 ft | 409 kts | 131° |
| 2026-04-15 00:55 | 49.49696 | 2.05006 | 15895 ft | 407 kts | 131° |
| 2026-04-15 00:55 | 49.47831 | 2.08181 | 15455 ft | 397 kts | 131° |
| 2026-04-15 00:55 | 49.46016 | 2.11267 | 15023 ft | 384 kts | 131° |
| 2026-04-15 00:55 | 49.44281 | 2.14274 | 14600 ft | 371 kts | 127° |
| 2026-04-15 00:56 | 49.43158 | 2.17755 | 14201 ft | 356 kts | 107° |
| 2026-04-15 00:56 | 49.42421 | 2.21320 | 13817 ft | 347 kts | 105° |
| 2026-04-15 00:56 | 49.41719 | 2.24762 | 13441 ft | 338 kts | 105° |
| 2026-04-15 00:56 | 49.41025 | 2.28165 | 13071 ft | 330 kts | 105° |
| 2026-04-15 00:57 | 49.40351 | 2.31467 | 12707 ft | 323 kts | 105° |
| 2026-04-15 00:57 | 49.39684 | 2.34732 | 12355 ft | 316 kts | 105° |
| 2026-04-15 00:57 | 49.39031 | 2.37921 | 12011 ft | 310 kts | 105° |
| 2026-04-15 00:57 | 49.38396 | 2.41025 | 11670 ft | 304 kts | 105° |
| 2026-04-15 00:58 | 49.37765 | 2.44098 | 11337 ft | 300 kts | 105° |
| 2026-04-15 00:58 | 49.37139 | 2.47140 | 11008 ft | 299 kts | 105° |
| 2026-04-15 00:58 | 49.36518 | 2.50159 | 10685 ft | 298 kts | 106° |
| 2026-04-15 00:58 | 49.35498 | 2.52839 | 10402 ft | 293 kts | 134° |
| 2026-04-15 00:59 | 49.33789 | 2.54417 | 10028 ft | 282 kts | 157° |
| 2026-04-15 00:59 | 49.32007 | 2.55452 | 9697 ft | 271 kts | 159° |
| 2026-04-15 00:59 | 49.30273 | 2.56430 | 9393 ft | 261 kts | 159° |
| 2026-04-15 00:59 | 49.28590 | 2.57370 | 9106 ft | 252 kts | 159° |
| 2026-04-15 01:00 | 49.26984 | 2.58262 | 8837 ft | 244 kts | 160° |
| 2026-04-15 01:00 | 49.25413 | 2.59132 | 8628 ft | 230 kts | 160° |
| 2026-04-15 01:00 | 49.23966 | 2.59932 | 8341 ft | 216 kts | 160° |
| 2026-04-15 01:00 | 49.22588 | 2.60693 | 8091 ft | 204 kts | 160° |
| 2026-04-15 01:01 | 49.21290 | 2.61408 | 7868 ft | 193 kts | 160° |
| 2026-04-15 01:01 | 49.20071 | 2.62081 | 7660 ft | 184 kts | 160° |
| 2026-04-15 01:01 | 49.18879 | 2.62737 | 7465 ft | 181 kts | 160° |
| 2026-04-15 01:01 | 49.17691 | 2.63390 | 7273 ft | 181 kts | 160° |
| 2026-04-15 01:02 | 49.16513 | 2.64038 | 7075 ft | 180 kts | 160° |
| 2026-04-15 01:02 | 49.15334 | 2.64686 | 6876 ft | 180 kts | 160° |
| 2026-04-15 01:02 | 49.14156 | 2.65333 | 6675 ft | 178 kts | 161° |
| 2026-04-15 01:02 | 49.12996 | 2.65970 | 6480 ft | 178 kts | 161° |
| 2026-04-15 01:03 | 49.11831 | 2.66609 | 6281 ft | 177 kts | 161° |
| 2026-04-15 01:03 | 49.10675 | 2.67243 | 6084 ft | 177 kts | 160° |
| 2026-04-15 01:03 | 49.09531 | 2.67870 | 5892 ft | 174 kts | 160° |
| 2026-04-15 01:03 | 49.08390 | 2.68496 | 5700 ft | 174 kts | 160° |
| 2026-04-15 01:04 | 49.07261 | 2.69114 | 5510 ft | 173 kts | 160° |
| 2026-04-15 01:04 | 49.06122 | 2.69737 | 5318 ft | 173 kts | 160° |
| 2026-04-15 01:04 | 49.04991 | 2.70356 | 5130 ft | 173 kts | 160° |
| 2026-04-15 01:04 | 49.03868 | 2.70970 | 4940 ft | 171 kts | 160° |
| 2026-04-15 01:05 | 49.02745 | 2.71584 | 4749 ft | 172 kts | 160° |
| 2026-04-15 01:05 | 49.01629 | 2.72194 | 4558 ft | 171 kts | 160° |
| 2026-04-15 01:05 | 49.00500 | 2.72811 | 4368 ft | 169 kts | 160° |
| 2026-04-15 01:05 | 48.99369 | 2.73202 | 4160 ft | 168 kts | 184° |
| 2026-04-15 01:06 | 48.98349 | 2.72418 | 3980 ft | 169 kts | 227° |
| 2026-04-15 01:06 | 48.97917 | 2.70783 | 3642 ft | 171 kts | 263° |
| 2026-04-15 01:06 | 48.97796 | 2.69009 | 3410 ft | 167 kts | 265° |
| 2026-04-15 01:06 | 48.97717 | 2.67246 | 3177 ft | 167 kts | 265° |
| 2026-04-15 01:07 | 48.97633 | 2.65483 | 2942 ft | 167 kts | 265° |
| 2026-04-15 01:07 | 48.97544 | 2.63736 | 2711 ft | 167 kts | 265° |
| 2026-04-15 01:07 | 48.97455 | 2.62036 | 2483 ft | 148 kts | 265° |
| 2026-04-15 01:07 | 48.97378 | 2.60589 | 2254 ft | 130 kts | 265° |
| 2026-04-15 01:08 | 48.97304 | 2.59211 | 2088 ft | 133 kts | 265° |
| 2026-04-15 01:08 | 48.97229 | 2.57817 | 1919 ft | 134 kts | 265° |
| 2026-04-15 01:08 | 48.97151 | 2.56397 | 1739 ft | 134 kts | 264° |
| 2026-04-15 01:08 | 48.97075 | 2.54978 | 1555 ft | 134 kts | 263° |
| 2026-04-15 01:09 | 48.96998 | 2.53567 | 1371 ft | 134 kts | 263° |
| 2026-04-15 01:09 | 48.96921 | 2.52166 | 1191 ft | 134 kts | 264° |
| 2026-04-15 01:09 | 48.96848 | 2.50785 | 1011 ft | 131 kts | 263° |
| 2026-04-15 01:09 | 48.96769 | 2.49382 | 833 ft | 134 kts | 265° |
| 2026-04-15 01:10 | 48.96694 | 2.47979 | 649 ft | 134 kts | 263° |
| 2026-04-15 01:10 | 48.96618 | 2.46592 | 479 ft | 130 kts | 266° |
| 2026-04-15 01:10 | 48.96539 | 2.45202 | 292 ft | 134 kts | 264° |
| 2026-04-15 01:10 | 48.96461 | 2.43824 | 154 ft | 118 kts | 264° |
| 2026-04-15 01:11 | 48.96410 | 2.42888 | 152 ft | 54 kts | 265° |
| 2026-04-15 01:11 | 48.96391 | 2.42523 | 150 ft | 11 kts | 249° |
| 2026-04-15 01:11 | 48.96314 | 2.42496 | 149 ft | 13 kts | 165° |
| 2026-04-15 01:11 | 48.96238 | 2.42592 | 147 ft | 15 kts | 129° |
| 2026-04-15 01:12 | 48.96168 | 2.42727 | 146 ft | 17 kts | 129° |
| 2026-04-15 01:12 | 48.96088 | 2.42880 | 143 ft | 19 kts | 129° |
| 2026-04-15 01:12 | 48.95998 | 2.43052 | 139 ft | 22 kts | 125° |
| 2026-04-15 01:12 | 48.95919 | 2.43261 | 136 ft | 23 kts | 115° |
| 2026-04-15 01:13 | 48.95848 | 2.43498 | 133 ft | 24 kts | 116° |
| 2026-04-15 01:13 | 48.95776 | 2.43735 | 134 ft | 24 kts | 115° |
| 2026-04-15 01:13 | 48.95706 | 2.43965 | 139 ft | 24 kts | 115° |
| 2026-04-15 01:13 | 48.95795 | 2.44132 | 144 ft | 23 kts | 25° |
| 2026-04-15 01:14 | 48.95884 | 2.44255 | 148 ft | 13 kts | 131° |
| 2026-04-15 01:14 | 48.95813 | 2.44300 | 148 ft | 10 kts | 78° |
| 2026-04-15 01:14 | 48.95817 | 2.44310 | 148 ft | 0 kts | 59° |